Time;durP1;ratioP1;P1;durP2;ratioP2;P2;SDS_P1;SDS_P2;PMS_P1;PMS_P2;Temp;Humidity;BMP_temperature;BMP_pressure;BME280_temperature;BME280_humidity;BME280_pressure;Samples;Min_cycle;Max_cycle;Signal;HPM_P1;HPM_P2
2023/12/04 00:00:48;;;;;;;41.67;26.65;;;3.40;99.90;;;;;;5085931;28;20031;-76
2023/12/04 00:03:14;;;;;;;46.60;27.85;;;3.50;99.90;;;;;;5081179;28;20083;-78
2023/12/04 00:05:43;;;;;;;46.45;29.00;;;3.30;99.90;;;;;;5086836;28;20415;-76
2023/12/04 00:08:09;;;;;;;41.53;24.70;;;3.70;99.90;;;;;;5087143;28;20038;-76
2023/12/04 00:10:34;;;;;;;44.90;28.65;;;3.20;99.90;;;;;;5081384;28;20044;-76
2023/12/04 00:13:03;;;;;;;36.15;24.25;;;3.90;99.90;;;;;;5073603;28;20645;-78
2023/12/04 00:15:29;;;;;;;40.38;27.30;;;3.20;99.90;;;;;;5052572;28;20056;-78
2023/12/04 00:17:54;;;;;;;46.78;29.33;;;3.80;99.90;;;;;;5077797;28;20043;-80
2023/12/04 00:20:20;;;;;;;48.72;30.90;;;3.90;99.90;;;;;;5053749;28;20085;-77
2023/12/04 00:22:46;;;;;;;42.67;28.38;;;3.40;99.90;;;;;;5073171;28;20119;-79
2023/12/04 00:25:12;;;;;;;44.85;29.65;;;3.20;99.90;;;;;;5087491;28;20074;-77
2023/12/04 00:27:37;;;;;;;48.78;30.40;;;3.10;99.90;;;;;;5063679;28;20044;-76
2023/12/04 00:30:04;;;;;;;34.95;21.48;;;3.20;99.90;;;;;;5083377;28;20062;-77
2023/12/04 00:32:30;;;;;;;42.13;28.30;;;3.60;99.90;;;;;;5057582;28;20047;-78
2023/12/04 00:34:56;;;;;;;42.53;27.38;;;3.20;99.90;;;;;;5051241;28;20036;-77
2023/12/04 00:37:22;;;;;;;48.00;29.65;;;3.80;99.90;;;;;;5083860;28;20058;-80
2023/12/04 00:39:48;;;;;;;39.67;23.50;;;3.40;99.90;;;;;;5067959;28;20040;-79
2023/12/04 00:42:13;;;;;;;44.10;27.90;;;3.70;99.90;;;;;;5064766;28;20434;-76
2023/12/04 00:44:39;;;;;;;42.92;27.83;;;3.10;99.90;;;;;;5087773;28;20036;-76
2023/12/04 00:47:05;;;;;;;41.50;27.13;;;3.50;99.90;;;;;;5057964;28;20040;-77
2023/12/04 00:49:31;;;;;;;46.03;28.00;;;3.90;99.90;;;;;;5067518;28;20051;-75
2023/12/04 00:51:57;;;;;;;38.05;24.92;;;3.20;99.90;;;;;;5060152;28;20573;-75
2023/12/04 00:54:23;;;;;;;46.60;28.98;;;3.10;99.90;;;;;;5077964;28;20155;-75
2023/12/04 00:56:48;;;;;;;54.17;30.65;;;3.10;99.90;;;;;;5065692;28;20078;-75
2023/12/04 00:59:14;;;;;;;45.60;28.00;;;3.90;99.90;;;;;;5081847;28;20028;-75
2023/12/04 01:01:40;;;;;;;55.25;32.85;;;3.50;99.90;;;;;;5064633;28;20055;-76
2023/12/04 01:04:06;;;;;;;40.90;24.98;;;3.80;99.90;;;;;;5084430;28;21608;-75
2023/12/04 01:06:31;;;;;;;54.10;30.85;;;3.30;99.90;;;;;;5056526;28;20043;-78
2023/12/04 01:08:57;;;;;;;37.72;25.00;;;3.30;99.90;;;;;;5073715;28;20040;-77
2023/12/04 01:11:23;;;;;;;47.03;29.58;;;3.80;99.90;;;;;;5062612;28;20464;-77
2023/12/04 01:13:49;;;;;;;42.47;26.63;;;3.20;99.90;;;;;;5067117;28;20062;-78
2023/12/04 01:16:17;;;;;;;39.97;27.08;;;3.20;99.90;;;;;;5054714;28;20041;-78
2023/12/04 01:18:43;;;;;;;45.10;27.17;;;3.90;99.90;;;;;;5072662;28;20040;-78
2023/12/04 01:21:09;;;;;;;35.20;23.23;;;3.20;99.90;;;;;;5072373;28;20039;-78
2023/12/04 01:23:35;;;;;;;36.15;24.88;;;3.70;99.90;;;;;;5052277;28;20491;-77
2023/12/04 01:26:02;;;;;;;36.08;25.58;;;3.10;99.90;;;;;;5063907;28;20040;-79
2023/12/04 01:28:28;;;;;;;39.20;25.38;;;3.20;99.90;;;;;;5064580;28;20060;-78
2023/12/04 01:30:54;;;;;;;41.47;25.80;;;3.20;99.90;;;;;;5056951;28;20515;-77
2023/12/04 01:33:19;;;;;;;36.53;23.23;;;3.80;99.90;;;;;;5057751;28;20044;-77
2023/12/04 01:35:45;;;;;;;36.08;24.08;;;3.90;99.90;;;;;;5049086;28;20036;-76
2023/12/04 01:38:11;;;;;;;49.78;29.38;;;3.50;99.90;;;;;;5067145;28;20086;-77
2023/12/04 01:40:37;;;;;;;55.28;32.20;;;3.20;99.90;;;;;;5055658;28;20480;-77
2023/12/04 01:43:02;;;;;;;40.45;25.35;;;3.30;99.90;;;;;;5052137;28;20067;-77
2023/12/04 01:45:29;;;;;;;50.38;30.73;;;4.00;99.90;;;;;;5063206;28;20041;-77
2023/12/04 01:47:55;;;;;;;34.42;20.95;;;4.00;99.90;;;;;;5061744;28;20044;-77
2023/12/04 01:50:21;;;;;;;37.78;24.80;;;3.60;99.90;;;;;;5061657;28;20040;-77
2023/12/04 01:52:49;;;;;;;48.08;28.35;;;3.20;99.90;;;;;;5038245;28;20067;-76
2023/12/04 01:55:15;;;;;;;42.95;26.95;;;3.80;99.90;;;;;;5051465;28;20488;-77
2023/12/04 01:57:41;;;;;;;48.38;29.17;;;3.30;99.90;;;;;;5046160;28;20047;-76
2023/12/04 02:00:12;;;;;;;38.67;24.58;;;4.00;99.90;;;;;;5062611;28;20041;-76
2023/12/04 02:02:44;;;;;;;43.72;27.13;;;3.50;99.90;;;;;;5046525;28;20044;-77
2023/12/04 02:05:12;;;;;;;36.35;25.25;;;4.00;99.90;;;;;;5061690;28;20040;-76
2023/12/04 02:07:41;;;;;;;42.13;26.38;;;3.20;99.90;;;;;;5079723;28;20052;-77
2023/12/04 02:10:07;;;;;;;47.30;29.15;;;3.50;99.90;;;;;;5078173;28;20055;-76
2023/12/04 02:12:33;;;;;;;48.20;29.38;;;3.60;99.90;;;;;;5060741;28;20040;-76
2023/12/04 02:14:59;;;;;;;47.25;29.17;;;3.20;99.90;;;;;;5069207;28;20044;-78
2023/12/04 02:17:25;;;;;;;44.50;28.27;;;4.00;99.90;;;;;;5084624;28;20044;-77
2023/12/04 02:19:52;;;;;;;42.00;26.60;;;4.00;99.90;;;;;;5086989;28;20570;-77
2023/12/04 02:22:18;;;;;;;45.42;27.83;;;4.00;99.90;;;;;;5080947;28;20054;-77
2023/12/04 02:24:45;;;;;;;49.42;30.27;;;3.90;99.90;;;;;;5062139;28;20040;-79
2023/12/04 02:27:18;;;;;;;50.00;29.77;;;3.70;99.90;;;;;;5066306;28;20048;-77
2023/12/04 02:29:52;;;;;;;54.80;31.85;;;3.40;99.90;;;;;;5084875;28;20105;-77
2023/12/04 02:32:19;;;;;;;54.17;30.58;;;3.50;99.90;;;;;;5073959;28;20056;-76
2023/12/04 02:34:47;;;;;;;45.13;27.40;;;3.20;99.90;;;;;;5065120;28;21694;-76
2023/12/04 02:37:14;;;;;;;38.95;24.67;;;3.40;99.90;;;;;;5070220;28;20501;-77
2023/12/04 02:39:41;;;;;;;38.75;25.38;;;3.40;99.90;;;;;;5059851;28;20388;-78
2023/12/04 02:42:07;;;;;;;58.35;32.65;;;3.40;99.90;;;;;;5063140;28;20466;-77
2023/12/04 02:44:33;;;;;;;53.15;31.98;;;3.90;99.90;;;;;;5074328;28;20040;-77
2023/12/04 02:46:59;;;;;;;44.53;28.38;;;4.10;99.90;;;;;;5050220;28;20481;-76
2023/12/04 02:49:24;;;;;;;45.35;28.90;;;3.30;99.90;;;;;;5059363;28;20046;-77
2023/12/04 02:51:50;;;;;;;44.17;28.48;;;4.00;99.90;;;;;;5060495;28;20050;-77
2023/12/04 02:54:16;;;;;;;38.50;25.17;;;4.10;99.90;;;;;;5062301;28;20044;-77
2023/12/04 02:56:41;;;;;;;56.60;32.35;;;4.00;99.90;;;;;;5054852;28;20086;-77
2023/12/04 02:59:07;;;;;;;54.60;30.80;;;4.10;99.90;;;;;;5034576;28;20086;-77
2023/12/04 03:01:33;;;;;;;50.22;29.88;;;3.90;99.90;;;;;;5065336;28;20040;-77
2023/12/04 03:03:58;;;;;;;48.72;29.48;;;3.50;99.90;;;;;;5056728;28;20047;-77
2023/12/04 03:06:24;;;;;;;45.10;29.33;;;3.30;99.90;;;;;;5049693;28;20425;-77
2023/12/04 03:08:50;;;;;;;42.63;27.25;;;3.30;99.90;;;;;;5047695;28;20040;-77
2023/12/04 03:11:15;;;;;;;40.78;26.67;;;3.30;99.90;;;;;;5057793;28;20037;-78
2023/12/04 03:13:41;;;;;;;44.05;27.77;;;4.10;99.90;;;;;;5084036;28;20036;-78
2023/12/04 03:16:15;;;;;;;53.83;31.77;;;4.00;99.90;;;;;;5054243;28;20075;-77
2023/12/04 03:18:41;;;;;;;47.80;30.15;;;3.50;99.90;;;;;;5058126;28;20391;-77
2023/12/04 03:21:07;;;;;;;51.08;31.63;;;4.00;99.90;;;;;;5048768;28;20035;-76
2023/12/04 03:23:32;;;;;;;43.35;27.25;;;3.30;99.90;;;;;;5087597;28;20032;-76
2023/12/04 03:25:58;;;;;;;47.80;29.60;;;3.40;99.90;;;;;;5066209;28;20042;-76
2023/12/04 03:28:24;;;;;;;48.38;29.80;;;4.00;99.90;;;;;;5071245;28;20086;-76
2023/12/04 03:30:50;;;;;;;51.33;32.90;;;3.30;99.90;;;;;;5058048;28;20606;-76
2023/12/04 03:33:15;;;;;;;45.80;30.25;;;3.30;99.90;;;;;;5048547;28;20121;-77
2023/12/04 03:35:41;;;;;;;45.65;30.13;;;4.10;99.90;;;;;;5071207;28;20401;-75
2023/12/04 03:38:06;;;;;;;43.50;27.88;;;3.30;99.90;;;;;;5060015;28;20047;-76
2023/12/04 03:40:32;;;;;;;49.05;30.58;;;4.10;99.90;;;;;;5056346;28;20048;-76
2023/12/04 03:42:58;;;;;;;41.00;27.45;;;3.40;99.90;;;;;;5069448;28;20032;-77
2023/12/04 03:45:24;;;;;;;39.55;26.73;;;4.20;99.90;;;;;;5028586;28;20110;-77
2023/12/04 03:47:49;;;;;;;42.78;28.92;;;4.20;99.90;;;;;;5071002;28;20043;-77
2023/12/04 03:50:15;;;;;;;38.40;26.40;;;3.90;99.90;;;;;;5064973;28;20141;-77
2023/12/04 03:52:41;;;;;;;38.65;25.90;;;4.20;99.90;;;;;;5050085;28;20121;-77
2023/12/04 03:55:09;;;;;;;39.45;27.00;;;3.60;99.90;;;;;;5067333;28;20086;-78
2023/12/04 03:57:34;;;;;;;42.38;28.70;;;3.90;99.90;;;;;;5053003;28;20043;-77
2023/12/04 04:00:00;;;;;;;41.33;26.98;;;4.20;99.90;;;;;;5085081;28;20028;-78
2023/12/04 04:02:26;;;;;;;36.03;24.50;;;4.20;99.90;;;;;;5071036;28;20047;-77
2023/12/04 04:04:51;;;;;;;36.75;24.60;;;3.40;99.90;;;;;;5053976;28;20081;-78
2023/12/04 04:07:18;;;;;;;38.92;24.75;;;3.40;99.90;;;;;;5084275;28;20032;-78
2023/12/04 04:09:44;;;;;;;39.95;26.23;;;4.00;99.90;;;;;;5073283;28;20063;-77
2023/12/04 04:12:09;;;;;;;43.75;27.77;;;3.50;99.90;;;;;;5060494;28;20036;-77
2023/12/04 04:14:35;;;;;;;42.58;27.20;;;4.20;99.90;;;;;;5062530;28;20396;-77
2023/12/04 04:17:01;;;;;;;35.53;25.10;;;4.30;99.90;;;;;;5064957;28;20032;-77
2023/12/04 04:19:27;;;;;;;43.67;26.63;;;4.30;99.90;;;;;;5046983;28;20044;-77
2023/12/04 04:21:52;;;;;;;36.80;25.38;;;4.20;99.90;;;;;;5070839;28;20052;-76
2023/12/04 04:24:18;;;;;;;43.53;27.60;;;3.90;99.90;;;;;;5052452;28;20085;-77
2023/12/04 04:26:44;;;;;;;43.63;26.42;;;4.40;99.90;;;;;;5055708;28;20089;-77
2023/12/04 04:29:10;;;;;;;41.53;26.48;;;3.70;99.90;;;;;;5031415;28;20422;-78
2023/12/04 04:31:36;;;;;;;46.55;29.67;;;4.30;99.90;;;;;;5062423;28;20040;-78
2023/12/04 04:34:02;;;;;;;41.20;26.58;;;4.10;99.90;;;;;;5049869;28;20164;-78
2023/12/04 04:36:27;;;;;;;47.65;29.45;;;3.50;99.90;;;;;;5056227;28;20037;-79
2023/12/04 04:38:53;;;;;;;40.47;25.30;;;4.40;99.90;;;;;;5068464;28;20040;-78
2023/12/04 04:41:19;;;;;;;44.17;27.63;;;4.40;99.90;;;;;;5029100;28;20039;-77
2023/12/04 04:43:45;;;;;;;43.92;28.27;;;4.50;99.90;;;;;;5026575;28;20055;-78
2023/12/04 04:46:11;;;;;;;40.33;26.05;;;4.40;99.90;;;;;;5032924;28;20043;-78
2023/12/04 04:48:37;;;;;;;42.88;26.95;;;3.50;99.90;;;;;;5080258;28;20040;-78
2023/12/04 04:51:04;;;;;;;46.22;28.48;;;3.60;99.90;;;;;;5070591;28;20100;-78
2023/12/04 04:53:29;;;;;;;47.45;29.38;;;3.80;99.90;;;;;;5060778;28;20392;-78
2023/12/04 04:55:55;;;;;;;43.53;27.20;;;4.60;99.90;;;;;;5073396;28;20032;-77
2023/12/04 04:58:21;;;;;;;39.05;25.55;;;4.50;99.90;;;;;;5050951;28;20063;-78
2023/12/04 05:00:47;;;;;;;40.28;26.15;;;4.30;99.90;;;;;;5045573;28;20094;-77
2023/12/04 05:03:13;;;;;;;39.70;26.45;;;3.80;99.90;;;;;;5085624;28;20055;-77
2023/12/04 05:05:39;;;;;;;41.83;26.42;;;4.40;99.90;;;;;;5056847;28;20036;-77
2023/12/04 05:08:05;;;;;;;40.90;25.73;;;3.50;99.90;;;;;;5050072;28;20039;-76
2023/12/04 05:10:30;;;;;;;42.00;24.80;;;3.70;99.90;;;;;;5051580;28;20040;-77
2023/12/04 05:12:56;;;;;;;35.33;25.00;;;3.50;99.90;;;;;;5063150;28;20066;-77
2023/12/04 05:15:22;;;;;;;37.58;25.52;;;3.50;99.90;;;;;;5063683;28;20132;-77
2023/12/04 05:17:47;;;;;;;35.40;24.13;;;3.60;99.90;;;;;;5068587;28;20115;-77
2023/12/04 05:20:13;;;;;;;38.03;25.30;;;3.60;99.90;;;;;;5087624;28;20070;-77
2023/12/04 05:22:40;;;;;;;35.20;22.10;;;4.30;99.90;;;;;;5048899;28;20043;-77
2023/12/04 05:25:06;;;;;;;37.28;25.30;;;3.60;99.90;;;;;;5048926;28;20032;-77
2023/12/04 05:27:32;;;;;;;37.40;25.00;;;3.50;99.90;;;;;;5062939;28;21510;-77
2023/12/04 05:29:57;;;;;;;38.45;25.90;;;3.70;99.90;;;;;;5038957;28;20098;-77
2023/12/04 05:32:23;;;;;;;36.45;24.00;;;4.30;99.90;;;;;;5064317;28;20044;-77
2023/12/04 05:34:49;;;;;;;35.92;23.70;;;3.90;99.90;;;;;;5063339;28;20042;-77
2023/12/04 05:37:15;;;;;;;37.35;24.50;;;3.50;99.90;;;;;;5058016;28;20432;-77
2023/12/04 05:39:41;;;;;;;36.50;24.25;;;4.10;99.90;;;;;;5067176;28;20037;-77
2023/12/04 05:42:07;;;;;;;35.85;23.95;;;4.50;99.90;;;;;;5084404;28;20081;-77
2023/12/04 05:44:34;;;;;;;38.42;25.02;;;4.30;99.90;;;;;;5081112;28;20086;-77
2023/12/04 05:47:00;;;;;;;37.63;24.98;;;3.30;99.90;;;;;;5081644;28;20051;-77
2023/12/04 05:49:29;;;;;;;37.28;24.80;;;3.90;99.90;;;;;;5071762;28;20039;-78
2023/12/04 05:51:54;;;;;;;37.05;23.67;;;3.30;99.90;;;;;;5068693;28;20037;-78
2023/12/04 05:54:20;;;;;;;36.83;23.80;;;4.20;99.90;;;;;;5078410;28;21657;-77
2023/12/04 05:56:46;;;;;;;40.92;25.40;;;3.70;99.90;;;;;;5060713;28;20050;-78
2023/12/04 05:59:11;;;;;;;39.88;25.88;;;3.70;99.90;;;;;;5071650;28;20063;-78
2023/12/04 06:01:37;;;;;;;39.47;26.33;;;4.40;99.90;;;;;;5055017;28;20865;-78
2023/12/04 06:04:03;;;;;;;37.08;24.83;;;3.30;99.90;;;;;;5050749;28;20070;-78
2023/12/04 06:06:29;;;;;;;36.53;24.30;;;4.30;99.90;;;;;;5080282;28;20047;-79
2023/12/04 06:08:55;;;;;;;35.20;23.30;;;3.40;99.90;;;;;;5050783;28;20036;-78
2023/12/04 06:11:20;;;;;;;34.10;23.42;;;4.10;99.90;;;;;;5054524;28;20044;-78
2023/12/04 06:13:47;;;;;;;35.35;23.80;;;4.00;99.90;;;;;;5060386;28;20060;-79
2023/12/04 06:16:13;;;;;;;34.75;22.63;;;3.90;99.90;;;;;;5064526;28;20079;-78
2023/12/04 06:18:39;;;;;;;37.67;25.58;;;3.80;99.90;;;;;;5062490;28;20460;-78
2023/12/04 06:21:05;;;;;;;39.17;25.52;;;3.40;99.90;;;;;;5053848;28;20025;-79
2023/12/04 06:23:31;;;;;;;37.58;24.45;;;3.30;99.90;;;;;;5063774;28;20072;-79
2023/12/04 06:25:57;;;;;;;37.58;23.75;;;3.60;99.90;;;;;;5068868;28;20045;-79
2023/12/04 06:28:23;;;;;;;33.10;22.27;;;4.20;99.90;;;;;;5061984;28;20113;-78
2023/12/04 06:30:49;;;;;;;35.47;24.02;;;4.30;99.90;;;;;;5083291;28;20039;-79
2023/12/04 06:33:18;;;;;;;35.72;23.60;;;3.40;99.90;;;;;;5066049;28;20047;-78
2023/12/04 06:35:44;;;;;;;33.28;20.40;;;3.60;99.90;;;;;;5057120;28;20040;-77
2023/12/04 06:38:13;;;;;;;33.85;21.98;;;3.50;99.90;;;;;;5030677;28;20039;-78
2023/12/04 06:40:39;;;;;;;36.13;23.83;;;3.70;99.90;;;;;;5079743;28;21848;-77
2023/12/04 06:43:05;;;;;;;37.10;24.95;;;3.40;99.90;;;;;;5065775;28;20123;-78
2023/12/04 06:45:32;;;;;;;35.55;24.25;;;4.30;99.90;;;;;;5083846;28;20040;-78
2023/12/04 06:47:59;;;;;;;33.13;23.05;;;3.40;99.90;;;;;;5062220;28;20048;-78
2023/12/04 06:50:24;;;;;;;36.80;24.20;;;4.40;99.90;;;;;;5084566;28;20051;-77
2023/12/04 06:52:50;;;;;;;33.22;22.25;;;4.30;99.90;;;;;;5073258;28;20040;-78
2023/12/04 06:55:16;;;;;;;35.00;23.23;;;3.40;99.90;;;;;;5064058;28;20037;-77
2023/12/04 06:57:42;;;;;;;33.55;23.33;;;4.30;99.90;;;;;;5048503;28;20043;-78
2023/12/04 07:00:12;;;;;;;34.35;21.50;;;4.30;99.90;;;;;;5061620;28;20070;-79
2023/12/04 07:02:38;;;;;;;36.08;23.85;;;4.10;99.90;;;;;;5049758;28;20610;-78
2023/12/04 07:05:04;;;;;;;36.35;24.35;;;3.40;99.90;;;;;;5075652;28;20040;-78
2023/12/04 07:07:30;;;;;;;34.72;22.27;;;4.40;99.90;;;;;;5061222;28;20085;-78
2023/12/04 07:09:55;;;;;;;35.92;22.77;;;3.40;99.90;;;;;;5054420;28;20123;-76
2023/12/04 07:12:21;;;;;;;32.30;20.30;;;3.40;99.90;;;;;;5082315;28;20040;-79
2023/12/04 07:14:47;;;;;;;31.85;22.63;;;3.50;99.90;;;;;;5049513;28;20140;-79
2023/12/04 07:17:13;;;;;;;34.40;24.00;;;4.30;99.90;;;;;;5064411;28;20098;-79
2023/12/04 07:19:41;;;;;;;33.50;23.42;;;3.60;99.90;;;;;;5081409;28;20040;-79
2023/12/04 07:22:07;;;;;;;36.42;23.00;;;3.40;99.90;;;;;;5081190;28;20044;-78
2023/12/04 07:24:32;;;;;;;32.05;21.77;;;4.40;99.90;;;;;;5079424;28;20393;-79
2023/12/04 07:26:59;;;;;;;32.22;21.70;;;3.90;99.90;;;;;;5062745;28;20048;-78
2023/12/04 07:29:24;;;;;;;34.08;22.55;;;4.10;99.90;;;;;;5057796;28;20051;-79
2023/12/04 07:31:50;;;;;;;33.80;22.98;;;4.20;99.90;;;;;;5078670;28;20037;-79
2023/12/04 07:34:16;;;;;;;32.25;21.27;;;4.10;99.90;;;;;;5063716;28;20039;-79
2023/12/04 07:36:44;;;;;;;33.05;22.30;;;4.20;99.90;;;;;;5066373;28;20465;-80
2023/12/04 07:39:10;;;;;;;31.55;21.40;;;3.60;99.90;;;;;;5072760;28;20036;-80
2023/12/04 07:41:37;;;;;;;28.70;20.85;;;3.30;99.90;;;;;;5065654;28;20383;-70
2023/12/04 07:44:03;;;;;;;32.10;20.90;;;4.10;99.90;;;;;;5052933;28;20036;-79
2023/12/04 07:46:29;;;;;;;29.10;20.13;;;4.20;99.90;;;;;;5051685;28;20082;-77
2023/12/04 07:48:55;;;;;;;29.65;19.58;;;3.50;99.90;;;;;;5075336;28;20047;-78
2023/12/04 07:51:21;;;;;;;28.77;19.00;;;4.00;99.90;;;;;;5065236;28;20048;-78
2023/12/04 07:53:47;;;;;;;26.92;17.23;;;4.20;99.90;;;;;;5054289;28;20032;-79
2023/12/04 07:56:13;;;;;;;30.65;21.17;;;4.10;99.90;;;;;;5047683;28;20071;-80
2023/12/04 07:58:39;;;;;;;26.70;18.77;;;3.30;99.90;;;;;;5065310;28;20048;-78
2023/12/04 08:01:05;;;;;;;28.67;19.65;;;3.60;99.90;;;;;;5085360;28;20032;-78
2023/12/04 08:03:31;;;;;;;29.92;19.42;;;3.50;99.90;;;;;;5064586;28;20040;-79
2023/12/04 08:05:58;;;;;;;29.20;19.40;;;4.10;99.90;;;;;;5064999;28;20498;-79
2023/12/04 08:08:24;;;;;;;27.27;19.33;;;4.20;99.90;;;;;;5049192;28;20388;-78
2023/12/04 08:10:50;;;;;;;26.88;19.88;;;4.10;99.90;;;;;;5079914;28;20093;-77
2023/12/04 08:13:17;;;;;;;28.90;18.73;;;3.50;99.90;;;;;;5079870;28;20047;-78
2023/12/04 08:15:44;;;;;;;29.08;19.40;;;3.50;99.90;;;;;;5033088;28;20136;-76
2023/12/04 08:18:10;;;;;;;28.60;19.83;;;3.50;99.90;;;;;;5061613;28;20370;-77
2023/12/04 08:20:35;;;;;;;26.75;18.42;;;3.50;99.90;;;;;;5041457;28;20051;-76
2023/12/04 08:23:01;;;;;;;26.23;19.38;;;3.60;99.90;;;;;;5052434;28;20047;-77
2023/12/04 08:31:59;;;;;;;27.35;19.35;;;4.30;99.90;;;;;;5039223;28;20049;-79
2023/12/04 08:34:24;;;;;;;24.45;16.15;;;4.50;99.90;;;;;;5025052;28;20038;-78
2023/12/04 08:36:50;;;;;;;25.25;15.75;;;4.40;99.90;;;;;;5024988;28;20025;-77
2023/12/04 08:39:16;;;;;;;25.10;17.70;;;4.70;99.90;;;;;;5025015;28;20327;-77
2023/12/04 08:41:47;;;;;;;24.85;17.20;;;4.50;99.90;;;;;;5024967;28;20191;-78
2023/12/04 08:44:14;;;;;;;21.63;15.82;;;4.30;99.90;;;;;;5008792;28;20045;-76
2023/12/04 08:46:40;;;;;;;23.95;17.05;;;3.60;99.90;;;;;;5008540;28;20037;-78
2023/12/04 08:49:06;;;;;;;23.55;16.05;;;3.80;99.90;;;;;;5008752;28;20041;-79
2023/12/04 08:51:31;;;;;;;23.88;16.02;;;4.30;99.90;;;;;;4992411;28;20033;-78
2023/12/04 08:53:57;;;;;;;24.02;16.98;;;3.70;99.90;;;;;;5008672;28;20021;-78
2023/12/04 08:56:23;;;;;;;21.00;14.27;;;4.00;99.90;;;;;;5024929;28;20420;-78
2023/12/04 08:58:50;;;;;;;22.30;15.80;;;4.30;99.90;;;;;;5011050;28;20313;-78
2023/12/04 09:01:16;;;;;;;20.70;15.25;;;5.40;99.90;;;;;;5043616;28;20218;-78
2023/12/04 09:03:41;;;;;;;20.88;14.57;;;3.80;99.90;;;;;;5043535;28;20032;-79
2023/12/04 09:06:07;;;;;;;21.38;15.60;;;3.80;99.90;;;;;;5044264;28;20104;-79
2023/12/04 09:08:34;;;;;;;19.90;14.48;;;3.80;99.90;;;;;;5018331;28;20033;-79
2023/12/04 09:11:00;;;;;;;21.55;15.05;;;4.30;99.90;;;;;;5024447;28;20191;-78
2023/12/04 09:13:25;;;;;;;19.27;14.50;;;3.90;99.90;;;;;;5023679;28;20046;-79
2023/12/04 09:15:51;;;;;;;19.73;14.05;;;3.80;99.90;;;;;;5021069;28;20040;-79
2023/12/04 09:18:17;;;;;;;21.38;14.35;;;4.00;99.90;;;;;;5013704;28;20075;-80
2023/12/04 09:20:43;;;;;;;19.27;13.70;;;4.30;99.90;;;;;;5005760;28;20208;-78
2023/12/04 09:23:09;;;;;;;21.27;14.85;;;3.90;99.90;;;;;;4987942;28;20040;-78
2023/12/04 09:25:35;;;;;;;18.15;13.40;;;3.90;99.90;;;;;;5020867;28;20060;-79
2023/12/04 09:28:01;;;;;;;18.60;14.00;;;3.90;99.90;;;;;;5005054;28;20219;-78
2023/12/04 09:30:27;;;;;;;18.27;13.75;;;4.20;99.90;;;;;;5023363;28;20076;-79
2023/12/04 09:32:52;;;;;;;18.23;14.18;;;4.10;99.90;;;;;;4990463;28;20258;-78
2023/12/04 09:35:18;;;;;;;18.35;13.77;;;4.00;99.90;;;;;;5024148;28;20037;-79
2023/12/04 09:37:45;;;;;;;18.48;13.50;;;4.40;99.90;;;;;;5008040;28;20115;-78
2023/12/04 09:40:12;;;;;;;17.55;13.13;;;4.00;99.90;;;;;;5008542;28;20039;-77
2023/12/04 09:42:39;;;;;;;17.10;13.30;;;4.00;99.90;;;;;;4994363;28;20175;-77
2023/12/04 09:45:07;;;;;;;16.90;12.48;;;4.30;99.90;;;;;;4989019;28;20323;-77
2023/12/04 09:47:34;;;;;;;18.52;12.65;;;4.40;99.90;;;;;;5004724;28;20169;-77
2023/12/04 09:50:00;;;;;;;17.75;12.52;;;4.30;99.90;;;;;;5004596;28;20044;-76
2023/12/04 09:52:27;;;;;;;18.25;13.32;;;4.50;99.90;;;;;;4988178;28;20034;-77
2023/12/04 09:54:53;;;;;;;17.02;12.15;;;4.10;99.90;;;;;;5004252;28;20030;-77
2023/12/04 09:57:19;;;;;;;17.67;13.23;;;4.40;99.90;;;;;;4970776;28;20044;-76
2023/12/04 09:59:46;;;;;;;17.27;13.02;;;4.50;99.90;;;;;;5002484;28;20200;-77
2023/12/04 10:02:11;;;;;;;16.48;12.98;;;4.10;99.90;;;;;;5002625;28;20067;-77
2023/12/04 10:04:37;;;;;;;17.25;13.00;;;4.20;99.90;;;;;;5002569;28;20033;-78
2023/12/04 10:07:04;;;;;;;16.58;13.00;;;4.20;99.90;;;;;;5003063;28;20100;-78
2023/12/04 10:09:30;;;;;;;17.02;12.25;;;4.30;99.90;;;;;;5002969;28;20060;-77
2023/12/04 10:11:56;;;;;;;16.52;12.63;;;4.20;99.90;;;;;;5002648;28;20034;-78
2023/12/04 10:14:23;;;;;;;16.30;12.40;;;4.40;99.90;;;;;;5002783;28;20104;-79
2023/12/04 10:16:49;;;;;;;17.05;12.02;;;5.50;99.90;;;;;;5002739;28;20247;-79
2023/12/04 10:19:19;;;;;;;16.67;12.35;;;4.60;99.90;;;;;;5003485;28;20033;-78
2023/12/04 10:21:46;;;;;;;17.48;12.80;;;4.60;99.90;;;;;;4987621;28;20041;-79
2023/12/04 10:24:12;;;;;;;15.57;10.88;;;4.70;99.90;;;;;;4987693;28;20038;-78
2023/12/04 10:26:49;;;;;;;17.45;12.73;;;4.40;99.90;;;;;;5003492;28;20037;-79
2023/12/04 10:29:15;;;;;;;15.77;12.18;;;4.40;99.90;;;;;;4987848;28;20084;-79
2023/12/04 10:31:41;;;;;;;18.17;12.38;;;4.70;99.90;;;;;;5003476;28;20054;-79
2023/12/04 10:34:09;;;;;;;16.52;12.90;;;4.60;99.90;;;;;;4987816;28;20060;-79
2023/12/04 10:36:36;;;;;;;16.42;11.80;;;4.40;99.90;;;;;;5003838;28;20076;-78
2023/12/04 10:39:04;;;;;;;16.58;12.23;;;4.30;99.90;;;;;;5003859;28;20053;-79
2023/12/04 10:41:31;;;;;;;15.52;11.82;;;4.40;99.90;;;;;;4971939;28;20030;-78
2023/12/04 10:43:57;;;;;;;16.98;12.13;;;4.60;99.90;;;;;;5003847;28;20334;-80
2023/12/04 10:46:25;;;;;;;15.68;11.85;;;4.60;99.90;;;;;;5003991;28;20109;-79
2023/12/04 10:48:51;;;;;;;15.45;11.30;;;4.70;99.90;;;;;;5003721;28;20034;-80
2023/12/04 10:51:17;;;;;;;15.60;12.13;;;4.60;99.90;;;;;;5003849;28;20084;-80
2023/12/04 10:53:44;;;;;;;14.77;11.25;;;4.70;99.90;;;;;;5003839;28;20223;-67
2023/12/04 10:56:25;;;;;;;16.02;12.30;;;4.40;99.90;;;;;;4971468;28;20042;-79
2023/12/04 10:58:53;;;;;;;17.50;12.38;;;4.70;99.90;;;;;;4987351;28;20041;-80
2023/12/04 11:01:20;;;;;;;15.82;11.82;;;4.70;99.90;;;;;;5002594;28;20358;-79
2023/12/04 11:03:49;;;;;;;15.85;12.30;;;4.50;99.90;;;;;;5002147;28;20087;-80
2023/12/04 11:06:18;;;;;;;17.48;12.35;;;4.40;99.90;;;;;;5002320;28;20045;-80
2023/12/04 11:08:48;;;;;;;16.50;12.30;;;4.60;99.90;;;;;;4985677;28;20204;-79
2023/12/04 11:11:19;;;;;;;15.95;13.05;;;4.70;99.90;;;;;;5002205;28;20045;-79
2023/12/04 11:13:50;;;;;;;16.58;13.00;;;4.70;99.90;;;;;;5001964;28;20060;-79
2023/12/04 11:16:26;;;;;;;15.68;12.45;;;4.50;99.90;;;;;;5002095;28;20108;-80
2023/12/04 11:18:58;;;;;;;14.55;11.75;;;4.50;99.90;;;;;;5002201;28;20038;-80
2023/12/04 11:21:25;;;;;;;16.58;13.07;;;4.40;99.90;;;;;;5002275;28;20072;-80
2023/12/04 11:23:51;;;;;;;17.85;12.60;;;4.80;99.90;;;;;;5001980;28;20316;-80
2023/12/04 11:26:17;;;;;;;16.20;12.07;;;4.80;99.90;;;;;;5002148;28;20143;-79
2023/12/04 11:28:44;;;;;;;15.80;12.55;;;5.20;99.90;;;;;;5001852;28;20030;-79
2023/12/04 11:31:10;;;;;;;15.60;11.90;;;4.50;99.90;;;;;;4985818;28;20052;-80
2023/12/04 11:33:37;;;;;;;15.23;12.35;;;5.00;99.90;;;;;;5010657;28;20116;-79
2023/12/04 11:36:10;;;;;;;15.82;11.95;;;4.90;99.90;;;;;;4983774;28;20242;-80
2023/12/04 12:43:02;;;;;;;14.25;10.80;;;4.60;99.90;;;;;;5022511;28;20068;-80
2023/12/04 12:45:28;;;;;;;13.65;11.05;;;4.70;99.90;;;;;;5044664;28;20049;-80
2023/12/04 12:47:56;;;;;;;14.32;11.43;;;4.60;99.90;;;;;;4995010;28;20029;-79
2023/12/04 12:50:22;;;;;;;14.50;10.88;;;5.00;99.90;;;;;;4994421;28;20044;-79
2023/12/04 12:52:49;;;;;;;15.77;11.52;;;5.30;99.90;;;;;;5007736;28;20041;-80
2023/12/04 12:55:27;;;;;;;14.15;11.00;;;4.70;99.90;;;;;;5000192;28;20508;-82
2023/12/04 12:57:58;;;;;;;15.15;11.50;;;4.60;99.90;;;;;;5021944;28;20343;-82
2023/12/04 13:00:24;;;;;;;13.88;11.25;;;4.70;99.90;;;;;;4996337;28;20041;-80
2023/12/04 13:02:55;;;;;;;15.65;12.30;;;4.50;99.90;;;;;;5007056;28;20079;-79
2023/12/04 13:05:21;;;;;;;13.80;11.65;;;4.80;99.90;;;;;;5003163;28;20480;-80
2023/12/04 13:07:47;;;;;;;15.70;11.85;;;4.50;99.90;;;;;;4998368;28;20132;-78
2023/12/04 13:10:13;;;;;;;14.43;11.75;;;4.70;99.90;;;;;;5020730;28;20075;-78
2023/12/04 13:12:39;;;;;;;16.23;12.48;;;4.70;99.90;;;;;;4999197;28;20150;-79
2023/12/04 13:15:06;;;;;;;14.93;11.90;;;4.70;99.90;;;;;;5010593;28;20038;-78
2023/12/04 13:17:32;;;;;;;15.57;12.07;;;4.60;99.90;;;;;;5025584;28;20104;-77
2023/12/04 13:19:58;;;;;;;14.05;11.15;;;4.60;99.90;;;;;;4992460;28;20523;-80
2023/12/04 13:22:24;;;;;;;15.02;12.18;;;4.90;99.90;;;;;;5008293;28;20107;-81
2023/12/04 13:24:50;;;;;;;16.35;12.23;;;4.50;99.90;;;;;;4982053;28;20037;-79
2023/12/04 13:27:18;;;;;;;15.13;12.43;;;4.50;99.90;;;;;;4995791;28;20045;-76
2023/12/04 13:29:49;;;;;;;14.60;11.50;;;4.70;99.90;;;;;;5004226;28;20077;-79
2023/12/04 13:32:16;;;;;;;14.35;12.00;;;4.90;99.90;;;;;;4988303;28;20495;-79
2023/12/04 13:34:42;;;;;;;15.48;12.05;;;4.80;99.90;;;;;;4996936;28;20037;-77
2023/12/04 13:37:08;;;;;;;17.63;13.05;;;4.80;99.90;;;;;;5004143;28;20087;-79
2023/12/04 13:39:51;;;;;;;14.35;11.85;;;4.70;99.90;;;;;;4992530;28;20049;-79
2023/12/04 13:45:03;;;;;;;14.13;10.88;;;4.40;99.90;;;;;;5012762;28;20550;-78